Accueil
METAR-TAF:

METAR-TAF

Aéroports :

Saint George, Alaska, États-Unis

latitude: 56-34-43N, longitude: 169-39-41W, altitude: 38 m

Observation

Le bulletin a été fait il y a 29 minutes, à 10:53 UTC
Vent 11 kt de est/sud-est
Température -1°C
Humidité 80%
Pression 995 hPa
Visibilité: 16.1 km
Nuages épars à une hauteur de 3500 ft
Nuages épars à une hauteur de 5500 ft
Ciel couvert à une hauteur de 9000 ft

METAR: PAPB 181053Z AUTO 11011KT 10SM SCT035 SCT055 OVC090 M01/M04 A2939 RMK AO2 SLP941 T10061044 TSNO $

Heure: 02:22 (11:22 UTC)


TAF: absent

Observations et prévisions météorologiques de plus de 4000 aéroports (messages METAR et TAF).

Les stations disponibles sont représentées par des disques jaunes et rouges sur la carte.

Passer la souris dessus pour voir le nom de la station.

Cliquer dessus pour voir les observations et prévisions météorologiques.

Pour changer de carte: cliquez sur les boutons verts avec une croix noire pour zoomer, sur le bouton vert avec un tiret pour effectuer un zoom arrière, ou sur les flèches vertes pour les cartes adjacentes.


METAR-TAF: